createdAt,value
2019-04-11T00:00:42.271Z,5.62
2019-04-11T00:03:11.426Z,5.67
2019-04-11T00:05:41.291Z,5.63
2019-04-11T00:08:10.487Z,5.72
2019-04-11T00:10:39.861Z,5.54
2019-04-11T00:13:17.356Z,5.68
2019-04-11T00:15:40.454Z,5.79
2019-04-11T00:18:10.302Z,5.66
2019-04-11T00:20:40.290Z,5.63
2019-04-11T00:23:10.233Z,5.49
2019-04-11T00:25:39.896Z,5.55
2019-04-11T00:28:09.843Z,5.52
2019-04-11T00:30:40.002Z,5.48
2019-04-11T00:33:09.833Z,5.46
2019-04-11T00:35:39.882Z,5.55
2019-04-11T00:38:09.831Z,5.46
2019-04-11T00:40:39.533Z,5.47
2019-04-11T00:43:09.538Z,5.38
2019-04-11T00:45:38.557Z,5.29
2019-04-11T00:48:09.162Z,5.19
2019-04-11T00:50:39.169Z,5.22
2019-04-11T00:53:08.487Z,5.11
2019-04-11T00:55:37.738Z,4.95
2019-04-11T00:58:07.502Z,4.96
2019-04-11T01:00:38.297Z,4.94
2019-04-11T01:03:07.957Z,4.82
2019-04-11T01:05:37.388Z,4.97
2019-04-11T01:08:07.246Z,4.97
2019-04-11T01:10:36.403Z,4.79
2019-04-11T01:13:07.081Z,4.87
2019-04-11T01:15:38.620Z,4.88
2019-04-11T01:18:08.122Z,4.76
2019-04-11T01:20:37.727Z,4.72
2019-04-11T01:23:06.950Z,4.63
2019-04-11T01:25:36.883Z,4.53
2019-04-11T01:28:06.776Z,4.51
2019-04-11T01:30:41.981Z,4.62
2019-04-11T01:33:12.989Z,4.49
2019-04-11T01:35:43.635Z,4.52
2019-04-11T01:38:13.943Z,4.52
2019-04-11T01:40:43.962Z,4.44
2019-04-11T01:43:13.559Z,4.58
2019-04-11T01:45:43.399Z,4.53
2019-04-11T01:48:43.879Z,4.47
2019-04-11T01:51:13.731Z,4.45
2019-04-11T01:53:43.615Z,4.39
2019-04-11T01:56:13.039Z,4.56
2019-04-11T01:58:42.692Z,4.62
2019-04-11T02:01:45.837Z,4.58
2019-04-11T02:04:28.251Z,4.44
2019-04-11T02:06:58.345Z,4.58
2019-04-11T02:09:28.385Z,4.57
2019-04-11T02:11:58.222Z,4.68
2019-04-11T02:14:27.963Z,4.81
2019-04-11T02:16:57.436Z,4.55
2019-04-11T02:19:26.676Z,4.63
2019-04-11T02:22:02.180Z,4.32
2019-04-11T02:24:43.830Z,4.52
2019-04-11T02:27:21.221Z,4.31
2019-04-11T02:29:50.947Z,4.32
2019-04-11T02:32:24.648Z,4.35
2019-04-11T02:34:54.666Z,4.07
2019-04-11T02:37:24.202Z,3.95
2019-04-11T02:39:54.123Z,3.75
2019-04-11T02:42:25.466Z,3.57
2019-04-11T02:45:10.900Z,3.48
2019-04-11T02:47:31.289Z,3.50
2019-04-11T02:49:57.254Z,3.46
2019-04-11T02:52:27.652Z,3.53
2019-04-11T02:54:57.476Z,3.39
2019-04-11T02:57:26.942Z,3.36
2019-04-11T02:59:56.488Z,3.33
2019-04-11T03:02:26.677Z,3.42
2019-04-11T03:04:56.570Z,3.47
2019-04-11T03:07:25.725Z,3.60
2019-04-11T03:09:56.498Z,3.88
2019-04-11T03:12:27.411Z,3.82
2019-04-11T03:15:21.360Z,3.80
2019-04-11T03:17:34.152Z,3.69
2019-04-11T03:20:13.296Z,3.78
2019-04-11T03:22:32.211Z,3.73
2019-04-11T03:25:02.932Z,3.63
2019-04-11T03:27:34.757Z,3.67
2019-04-11T03:30:07.116Z,3.58
2019-04-11T03:33:39.691Z,3.65
2019-04-11T03:36:03.960Z,3.57
2019-04-11T03:37:58.545Z,3.56
2019-04-11T03:40:25.799Z,3.58
2019-04-11T03:42:54.303Z,3.46
2019-04-11T03:45:33.330Z,3.40
2019-04-11T03:47:59.521Z,3.42
2019-04-11T03:50:16.661Z,3.31
2019-04-11T03:52:43.186Z,3.34
2019-04-11T03:55:13.311Z,3.42
2019-04-11T03:57:43.376Z,3.47
2019-04-11T04:00:15.449Z,3.36
2019-04-11T04:02:46.589Z,3.14
2019-04-11T04:05:17.584Z,3.26
2019-04-11T04:07:48.705Z,3.27
2019-04-11T04:10:21.153Z,3.21
2019-04-11T04:12:51.679Z,3.03
2019-04-11T04:15:54.217Z,3.26
2019-04-11T04:18:21.380Z,3.07
2019-04-11T04:21:13.431Z,3.07
2019-04-11T04:23:45.980Z,3.10
2019-04-11T04:26:16.830Z,2.99
2019-04-11T04:28:47.594Z,3.15
2019-04-11T04:31:19.148Z,3.06
2019-04-11T04:33:48.785Z,3.07
2019-04-11T04:36:18.515Z,3.17
2019-04-11T04:38:48.862Z,3.13
2019-04-11T04:41:30.188Z,3.02
2019-04-11T04:43:50.685Z,2.90
2019-04-11T04:46:34.670Z,2.81
2019-04-11T04:48:51.660Z,2.85
2019-04-11T04:51:23.999Z,2.73
2019-04-11T04:53:52.092Z,2.83
2019-04-11T04:56:26.012Z,2.91
2019-04-11T04:58:54.087Z,2.92
2019-04-11T05:01:23.945Z,2.87
2019-04-11T05:03:54.130Z,2.86
2019-04-11T05:06:24.102Z,2.84
2019-04-11T05:08:53.328Z,2.73
2019-04-11T05:11:23.294Z,2.80
2019-04-11T05:13:52.666Z,2.73
2019-04-11T05:16:23.357Z,2.72
2019-04-11T05:18:52.620Z,2.80
2019-04-11T05:21:21.817Z,2.79
2019-04-11T05:23:52.167Z,2.79
2019-04-11T05:26:21.598Z,2.86
2019-04-11T05:28:51.096Z,2.98
2019-04-11T05:31:20.662Z,2.92
2019-04-11T05:33:49.834Z,2.97
2019-04-11T05:36:18.874Z,2.90
2019-04-11T05:38:48.657Z,3.06
2019-04-11T05:41:20.539Z,3.09
2019-04-11T05:43:49.371Z,3.26
2019-04-11T05:46:31.018Z,3.13
2019-04-11T05:49:00.696Z,3.19
2019-04-11T05:51:39.004Z,3.26
2019-04-11T05:54:05.800Z,3.31
2019-04-11T05:56:33.391Z,3.27
2019-04-11T05:59:15.119Z,3.26
2019-04-11T06:01:48.787Z,3.31
2019-04-11T06:04:26.524Z,3.30
2019-04-11T06:06:59.705Z,3.42
2019-04-11T06:09:33.788Z,3.55
2019-04-11T06:12:10.135Z,3.65
2019-04-11T06:14:44.134Z,3.77
2019-04-11T06:17:15.936Z,3.88
2019-04-11T06:20:03.951Z,3.88
2019-04-11T06:22:33.955Z,3.86
2019-04-11T06:25:23.505Z,3.85
2019-04-11T06:27:59.966Z,3.97
2019-04-11T06:30:46.619Z,4.11
2019-04-11T06:33:22.612Z,4.22
2019-04-11T06:36:23.487Z,4.22
2019-04-11T06:39:10.020Z,4.34
2019-04-11T06:41:58.975Z,4.48
2019-04-11T06:44:39.547Z,4.52
2019-04-11T06:47:18.825Z,4.66
2019-04-11T06:49:55.022Z,4.73
2019-04-11T06:52:24.745Z,4.92
2019-04-11T06:55:22.811Z,5.06
2019-04-11T06:57:52.752Z,5.16
2019-04-11T07:00:23.286Z,5.19
2019-04-11T07:02:59.106Z,5.41
2019-04-11T07:05:33.054Z,5.44
2019-04-11T07:08:02.576Z,5.55
2019-04-11T07:10:39.316Z,5.62
2019-04-11T07:13:18.603Z,5.63
2019-04-11T07:15:54.843Z,5.76
2019-04-11T07:18:35.763Z,5.90
2019-04-11T07:21:06.931Z,6.22
2019-04-11T07:23:53.681Z,6.63
2019-04-11T07:26:33.093Z,6.34
2019-04-11T07:29:27.134Z,6.23
2019-04-11T07:32:22.292Z,6.21
2019-04-11T07:35:17.343Z,6.28
2019-04-11T07:37:49.362Z,6.35
2019-04-11T07:40:36.402Z,6.42
2019-04-11T07:43:27.198Z,6.47
2019-04-11T07:46:25.113Z,6.62
2019-04-11T07:49:00.108Z,6.82
2019-04-11T07:51:34.534Z,6.93
2019-04-11T07:54:06.482Z,6.92
2019-04-11T07:57:04.028Z,7.17
2019-04-11T07:59:53.349Z,7.19
2019-04-11T08:02:40.113Z,7.27
2019-04-11T08:05:28.033Z,7.41
2019-04-11T08:08:06.852Z,7.70
2019-04-11T08:10:43.866Z,7.80
2019-04-11T08:13:21.284Z,7.95
2019-04-11T08:16:22.365Z,7.78
2019-04-11T08:19:09.727Z,7.97
2019-04-11T08:22:06.374Z,8.05
2019-04-11T08:24:51.079Z,8.30
2019-04-11T08:27:33.691Z,8.51
2019-04-11T08:30:03.039Z,8.57
2019-04-11T08:32:50.260Z,8.55
2019-04-11T08:35:53.399Z,8.78
2019-04-11T08:38:32.361Z,8.74
2019-04-11T08:41:27.449Z,9.03
2019-04-11T08:43:56.524Z,9.28
2019-04-11T08:46:30.911Z,9.21
2019-04-11T08:49:03.521Z,9.58
2019-04-11T08:51:33.616Z,10.08
2019-04-11T08:54:27.736Z,13.36
2019-04-11T08:56:56.779Z,13.36
2019-04-11T08:59:57.680Z,15.04
2019-04-11T09:02:37.391Z,16.33
2019-04-11T09:05:41.230Z,17.76
2019-04-11T09:08:27.828Z,17.64
2019-04-11T09:11:22.493Z,18.60
2019-04-11T09:14:22.504Z,19.18
2019-04-11T09:17:12.233Z,18.78
2019-04-11T09:20:07.509Z,18.36
2019-04-11T09:22:39.666Z,19.05
2019-04-11T09:25:43.490Z,20.38
2019-04-11T09:28:21.771Z,21.09
2019-04-11T09:31:23.012Z,20.60
2019-04-11T09:34:13.842Z,20.65
2019-04-11T09:37:05.246Z,20.76
2019-04-11T09:39:53.173Z,20.64
2019-04-11T09:42:41.230Z,21.22
2019-04-11T09:45:33.289Z,19.17
2019-04-11T09:48:37.795Z,19.30
2019-04-11T09:51:26.452Z,20.30
2019-04-11T09:54:12.309Z,20.84
2019-04-11T09:57:00.367Z,21.36
2019-04-11T09:59:39.349Z,20.27
2019-04-11T10:02:25.934Z,20.71
2019-04-11T10:04:56.854Z,19.90
2019-04-11T10:07:50.295Z,20.40
2019-04-11T10:10:40.670Z,21.72
2019-04-11T10:13:46.417Z,22.13
2019-04-11T10:16:46.549Z,22.08
2019-04-11T10:19:24.197Z,22.84
2019-04-11T10:22:04.881Z,22.93
2019-04-11T10:24:42.920Z,22.56
2019-04-11T10:27:31.050Z,22.94
2019-04-11T10:30:17.635Z,23.67
2019-04-11T10:32:49.881Z,23.59
2019-04-11T10:35:36.614Z,23.83
2019-04-11T10:38:06.784Z,22.57
2019-04-11T10:40:46.732Z,22.90
2019-04-11T10:43:16.583Z,22.27
2019-04-11T10:46:04.279Z,22.40
2019-04-11T10:48:46.734Z,21.75
2019-04-11T10:51:34.019Z,23.39
2019-04-11T10:54:05.851Z,24.28
2019-04-11T10:56:44.731Z,22.11
2019-04-11T10:59:15.446Z,23.17
2019-04-11T11:02:12.778Z,23.84
2019-04-11T11:04:48.591Z,23.36
2019-04-11T11:07:24.648Z,23.46
2019-04-11T11:10:07.047Z,22.66
2019-04-11T11:12:53.927Z,22.41
2019-04-11T11:15:42.001Z,22.47
2019-04-11T11:21:03.570Z,22.41
2019-04-11T11:23:49.279Z,21.32
2019-04-11T11:26:28.248Z,21.77
2019-04-11T11:29:33.048Z,21.64
2019-04-11T11:32:16.703Z,21.13
2019-04-11T11:34:56.908Z,22.27
2019-04-11T11:37:51.206Z,22.69
2019-04-11T11:40:41.142Z,22.38
2019-04-11T11:43:27.464Z,23.43
2019-04-11T11:46:19.336Z,23.23
2019-04-11T11:48:54.741Z,23.16
2019-04-11T11:51:49.771Z,22.55
2019-04-11T11:54:23.904Z,22.24
2019-04-11T11:56:54.637Z,23.10
2019-04-11T11:59:45.511Z,23.07
2019-04-11T12:02:21.088Z,23.71
2019-04-11T12:05:20.762Z,22.42
2019-04-11T12:08:27.094Z,23.44
2019-04-11T12:11:01.785Z,23.23
2019-04-11T12:13:53.756Z,22.01
2019-04-11T12:16:45.183Z,22.34
2019-04-11T12:19:24.805Z,22.25
2019-04-11T12:21:55.895Z,22.01
2019-04-11T12:24:44.930Z,22.20
2019-04-11T12:27:32.908Z,22.28
2019-04-11T12:30:29.088Z,20.83
2019-04-11T12:33:05.604Z,21.33
2019-04-11T12:35:54.760Z,21.03
2019-04-11T12:38:35.690Z,22.06
2019-04-11T12:41:29.778Z,22.13
2019-04-11T12:44:29.521Z,21.57
2019-04-11T12:47:18.530Z,21.62
2019-04-11T12:50:19.372Z,21.15
2019-04-11T12:52:56.464Z,21.39
2019-04-11T12:55:33.803Z,21.76
2019-04-11T12:58:09.303Z,21.43
2019-04-11T13:01:03.488Z,21.12
2019-04-11T13:03:49.954Z,21.21
2019-04-11T13:06:34.764Z,22.09
2019-04-11T13:09:13.176Z,21.30
2019-04-11T13:11:43.706Z,21.62
2019-04-11T13:14:43.692Z,20.92
2019-04-11T13:17:16.625Z,20.73
2019-04-11T13:20:10.749Z,20.57
2019-04-11T13:22:41.160Z,20.57
2019-04-11T13:25:35.637Z,20.32
2019-04-11T13:28:04.765Z,20.98
2019-04-11T13:31:08.031Z,20.83
2019-04-11T13:33:37.444Z,20.44
2019-04-11T13:36:37.728Z,20.44
2019-04-11T13:39:07.078Z,20.73
2019-04-11T13:41:51.097Z,20.88
2019-04-11T13:44:32.211Z,21.09
2019-04-11T13:47:18.662Z,21.39
2019-04-11T13:49:53.286Z,21.37
2019-04-11T13:52:44.168Z,21.80
2019-04-11T13:55:32.403Z,21.06
2019-04-11T13:58:19.122Z,20.52
2019-04-11T14:00:52.233Z,20.97
2019-04-11T14:03:49.047Z,21.64
2019-04-11T14:06:29.245Z,21.40
2019-04-11T14:09:07.317Z,21.19
2019-04-11T14:11:38.724Z,21.12
2019-04-11T14:14:17.015Z,21.19
2019-04-11T14:16:58.427Z,20.99
2019-04-11T14:19:45.415Z,21.03
2019-04-11T14:22:33.387Z,21.27
2019-04-11T14:25:21.321Z,21.51
2019-04-11T14:27:52.399Z,21.49
2019-04-11T14:30:38.988Z,20.84
2019-04-11T14:33:08.220Z,21.24
2019-04-11T14:35:57.633Z,21.40
2019-04-11T14:38:26.175Z,21.81
2019-04-11T14:41:20.327Z,21.42
2019-04-11T14:43:54.110Z,20.57
2019-04-11T14:46:41.135Z,20.81
2019-04-11T14:49:15.007Z,20.76
2019-04-11T14:52:01.974Z,20.12
2019-04-11T14:54:49.265Z,20.45
2019-04-11T14:57:36.661Z,20.81
2019-04-11T15:00:19.465Z,21.12
2019-04-11T15:03:03.426Z,20.22
2019-04-11T15:05:47.492Z,20.40
2019-04-11T15:08:22.140Z,20.72
2019-04-11T15:11:03.660Z,20.81
2019-04-11T15:13:32.889Z,19.53
2019-04-11T15:16:27.445Z,19.85
2019-04-11T15:19:02.217Z,20.06
2019-04-11T15:21:48.695Z,19.47
2019-04-11T15:24:19.223Z,20.00
2019-04-11T15:27:16.399Z,19.90
2019-04-11T15:29:46.599Z,20.15
2019-04-11T15:32:35.373Z,19.71
2019-04-11T15:35:10.895Z,19.27
2019-04-11T15:37:57.157Z,19.71
2019-04-11T15:40:35.617Z,19.92
2019-04-11T15:43:42.232Z,19.68
2019-04-11T15:46:27.111Z,19.81
2019-04-11T15:49:21.194Z,19.52
2019-04-11T15:51:58.940Z,19.29
2019-04-11T15:54:46.965Z,19.75
2019-04-11T15:57:44.240Z,19.49
2019-04-11T16:00:44.760Z,18.97
2019-04-11T16:03:16.458Z,19.47
2019-04-11T16:06:03.871Z,19.46
2019-04-11T16:08:50.532Z,18.86
2019-04-11T16:11:46.887Z,19.11
2019-04-11T16:14:21.379Z,18.78
2019-04-11T16:17:21.594Z,19.21
2019-04-11T16:20:17.808Z,19.16
2019-04-11T16:23:11.378Z,19.18
2019-04-11T16:25:59.483Z,18.76
2019-04-11T16:28:45.981Z,18.17
2019-04-11T16:31:15.136Z,18.02
2019-04-11T16:34:05.993Z,17.57
2019-04-11T16:36:55.571Z,17.69
2019-04-11T16:39:52.076Z,17.75
2019-04-11T16:42:31.241Z,17.86
2019-04-11T16:45:19.557Z,17.75
2019-04-11T16:48:01.986Z,17.98
2019-04-11T16:50:31.885Z,17.54
2019-04-11T16:53:01.408Z,18.00
2019-04-11T16:55:30.409Z,17.97
2019-04-11T16:57:59.869Z,17.35
2019-04-11T17:00:28.938Z,16.53
2019-04-11T17:02:58.001Z,17.24
2019-04-11T17:05:27.087Z,16.74
2019-04-11T17:08:18.179Z,16.39
2019-04-11T17:11:04.997Z,15.96
2019-04-11T17:13:34.302Z,16.24
2019-04-11T17:16:04.237Z,16.34
2019-04-11T17:18:34.381Z,15.83
2019-04-11T17:21:07.873Z,15.90
2019-04-11T17:23:36.309Z,15.79
2019-04-11T17:26:06.819Z,15.62
2019-04-11T17:28:36.586Z,15.35
2019-04-11T17:31:05.939Z,15.09
2019-04-11T17:33:35.004Z,15.25
2019-04-11T17:36:04.424Z,14.99
2019-04-11T17:38:36.862Z,14.78
2019-04-11T17:41:04.837Z,15.02
2019-04-11T17:43:34.291Z,14.98
2019-04-11T17:46:03.351Z,14.67
2019-04-11T17:48:32.361Z,14.20
2019-04-11T17:51:04.821Z,14.46
2019-04-11T17:53:32.983Z,14.25
2019-04-11T17:56:02.353Z,14.00
2019-04-11T17:58:31.831Z,14.10
2019-04-11T18:01:05.215Z,13.94
2019-04-11T18:03:33.794Z,13.61
2019-04-11T18:06:02.824Z,13.29
2019-04-11T18:08:31.941Z,13.33
2019-04-11T18:11:01.345Z,12.92
2019-04-11T18:13:31.534Z,12.56
2019-04-11T18:16:01.758Z,12.56
2019-04-11T18:18:34.942Z,12.68
2019-04-11T18:21:02.135Z,12.35
2019-04-11T18:23:31.744Z,12.61
2019-04-11T18:26:00.898Z,12.43
2019-04-11T18:28:30.279Z,12.09
2019-04-11T18:30:59.828Z,11.78
2019-04-11T18:33:31.490Z,11.51
2019-04-11T18:36:02.358Z,11.65
2019-04-11T18:38:32.008Z,11.63
2019-04-11T18:41:01.707Z,11.16
2019-04-11T18:43:30.762Z,11.18
2019-04-11T18:45:59.918Z,11.18
2019-04-11T18:48:29.041Z,10.83
2019-04-11T18:50:58.079Z,11.23
2019-04-11T18:53:27.179Z,10.88
2019-04-11T18:55:56.226Z,10.55
2019-04-11T18:58:25.292Z,10.83
2019-04-11T19:00:54.451Z,10.83
2019-04-11T19:03:35.474Z,10.76
2019-04-11T19:05:54.293Z,10.44
2019-04-11T19:08:23.599Z,10.69
2019-04-11T19:10:52.736Z,10.65
2019-04-11T19:13:21.809Z,10.56
2019-04-11T19:15:51.252Z,10.57
2019-04-11T19:18:20.283Z,10.33
2019-04-11T19:20:50.823Z,10.18
2019-04-11T19:23:19.935Z,10.16
2019-04-11T19:25:49.345Z,10.12
2019-04-11T19:28:18.400Z,10.01
2019-04-11T19:30:47.899Z,9.79
2019-04-11T19:33:19.143Z,9.61
2019-04-11T19:35:51.777Z,9.59
2019-04-11T19:38:26.201Z,9.50
2019-04-11T19:40:55.683Z,9.62
2019-04-11T19:43:24.808Z,9.41
2019-04-11T19:45:53.903Z,9.21
2019-04-11T19:48:25.214Z,9.37
2019-04-11T19:50:53.719Z,9.26
2019-04-11T19:53:22.805Z,9.15
2019-04-11T19:56:06.137Z,9.05
2019-04-11T19:58:35.511Z,8.96
2019-04-11T20:01:05.214Z,8.98
2019-04-11T20:03:34.644Z,9.02
2019-04-11T20:06:03.978Z,8.90
2019-04-11T20:08:33.019Z,8.72
2019-04-11T20:11:02.126Z,8.81
2019-04-11T20:13:32.335Z,8.40
2019-04-11T20:16:05.658Z,8.50
2019-04-11T20:18:35.277Z,8.35
2019-04-11T20:21:07.572Z,8.50
2019-04-11T20:23:41.503Z,8.26
2019-04-11T20:26:08.423Z,8.10
2019-04-11T20:28:37.466Z,7.90
2019-04-11T20:31:06.871Z,7.81
2019-04-11T20:33:36.236Z,7.85
2019-04-11T20:36:08.200Z,7.71
2019-04-11T20:38:36.839Z,7.87
2019-04-11T20:41:06.299Z,7.81
2019-04-11T20:43:35.468Z,7.58
2019-04-11T20:46:05.147Z,7.40
2019-04-11T20:48:35.267Z,7.46
2019-04-11T20:51:04.433Z,7.58
2019-04-11T20:53:36.633Z,7.64
2019-04-11T20:56:04.788Z,7.67
2019-04-11T20:58:33.822Z,7.48
2019-04-11T21:01:03.606Z,7.57
2019-04-11T21:03:32.631Z,7.42
2019-04-11T21:06:02.499Z,7.45
2019-04-11T21:08:33.060Z,7.71
2019-04-11T21:11:04.551Z,7.59
2019-04-11T21:13:33.216Z,7.61
2019-04-11T21:16:02.699Z,7.70
2019-04-11T21:18:31.799Z,7.62
2019-04-11T21:21:00.825Z,7.75
2019-04-11T21:23:30.306Z,7.61
2019-04-11T21:25:59.724Z,7.61
2019-04-11T21:28:30.290Z,7.62
2019-04-11T21:31:00.719Z,7.49
2019-04-11T21:33:34.249Z,7.77
2019-04-11T21:36:01.947Z,7.68
2019-04-11T21:38:31.562Z,7.60
2019-04-11T21:41:01.132Z,7.40
2019-04-11T21:43:30.500Z,7.35
2019-04-11T21:45:59.587Z,7.27
2019-04-11T21:48:28.621Z,7.18
2019-04-11T21:50:58.475Z,7.22
2019-04-11T21:53:36.429Z,7.10
2019-04-11T21:56:00.582Z,7.14
2019-04-11T21:58:29.707Z,6.91
2019-04-11T22:01:03.229Z,7.07
2019-04-11T22:03:32.392Z,6.90
2019-04-11T22:06:01.448Z,7.01
2019-04-11T22:08:31.968Z,6.99
2019-04-11T22:11:03.076Z,6.91
2019-04-11T22:13:32.388Z,6.72
2019-04-11T22:16:01.842Z,6.69
2019-04-11T22:18:31.298Z,6.81
2019-04-11T22:21:00.369Z,6.79
2019-04-11T22:23:29.414Z,6.66
2019-04-11T22:25:59.192Z,6.55
2019-04-11T22:28:28.242Z,6.50
2019-04-11T22:30:57.330Z,6.47
2019-04-11T22:33:31.306Z,6.36
2019-04-11T22:36:00.823Z,6.52
2019-04-11T22:38:31.043Z,6.45
2019-04-11T22:41:02.004Z,6.46
2019-04-11T22:43:31.873Z,6.54
2019-04-11T22:46:01.277Z,6.53
2019-04-11T22:48:30.329Z,6.54
2019-04-11T22:50:59.357Z,6.46
2019-04-11T22:53:28.685Z,6.35
2019-04-11T22:55:57.742Z,6.46
2019-04-11T22:58:26.776Z,6.42
2019-04-11T23:00:55.807Z,6.51
2019-04-11T23:03:29.410Z,6.49
2019-04-11T23:05:58.746Z,6.73
2019-04-11T23:08:28.057Z,6.78
2019-04-11T23:10:57.060Z,6.97
2019-04-11T23:13:26.098Z,6.89
2019-04-11T23:15:55.132Z,6.43
2019-04-11T23:18:24.173Z,6.54
2019-04-11T23:20:55.930Z,6.38
2019-04-11T23:23:24.773Z,6.15
2019-04-11T23:25:53.844Z,5.94
2019-04-11T23:28:23.186Z,5.91
2019-04-11T23:30:52.212Z,5.92
2019-04-11T23:33:22.125Z,5.91
2019-04-11T23:35:51.755Z,5.74
2019-04-11T23:38:23.621Z,5.63
2019-04-11T23:40:51.873Z,5.48
2019-04-11T23:43:20.909Z,5.35
2019-04-11T23:45:51.267Z,5.69
2019-04-11T23:48:23.846Z,5.55
2019-04-11T23:50:54.763Z,5.59
2019-04-11T23:53:22.846Z,5.63
2019-04-11T23:55:52.608Z,5.67
2019-04-11T23:58:21.989Z,5.44
